Kitakyushu Airport Kitakyushu JP
ICAO: RJFR
IATA: KKJ
Category: Medium
Scheduled Services: Yes

Elevation: 21 ft
TransAlt. 0 ft.

Airport Communications:
RDO:118.85

RJFR Zoom In..

If you have problems with the map follow the link
https://www.worldairports.se/pages/airport.php?
ICAO=RJFR

Runways:

(A) RW 18 length 8202 ft width 197 ft
ILS 109.15 / hdg 177

(B) RW 36 length 8202 ft width 197 ft
---- / hdg 357

Location; RJFR
Day. 18 / Time. 05.00 Zulu
* QNH: 1011
* Temperature: 23° c. 73.4°f.
* Wind from: 140° Speed 05 kn.
Dewpoint: 17° c.
Visibility: 10 km or more.
Clouds: Few 2000 ft.
Clouds: Scattered 8000 ft.
Clouds: Broken /00 ft.

RJFR 180500Z 14005KT 110V180 9999 FEW020 SCT080 BKN/// 23/17 Q1011


Wind From 140°
Speed 05 kn.

 
 
jpsmedia.com for Web Design worldairports.se 2019   terms of use